Time;durP1;ratioP1;P1;durP2;ratioP2;P2;SDS_P1;SDS_P2;PMS_P1;PMS_P2;Temp;Humidity;BMP_temperature;BMP_pressure;BME280_temperature;BME280_humidity;BME280_pressure;Samples;Min_cycle;Max_cycle;Signal;HPM_P1;HPM_P2
2022/06/24 00:09:31;;;;;;;3.58;2.13;;;23.00;99.90;;;;;;20875103;28;20067;-39
2022/06/24 00:19:35;;;;;;;6.47;2.58;;;22.90;99.90;;;;;;20878508;28;20482;-39
2022/06/24 00:29:36;;;;;;;7.68;2.50;;;22.70;99.90;;;;;;20872199;28;20040;-39
2022/06/24 00:39:37;;;;;;;4.68;2.38;;;22.50;99.90;;;;;;20875501;28;20175;-39
2022/06/24 00:49:38;;;;;;;4.10;1.80;;;22.30;99.90;;;;;;20865534;28;20613;-39
2022/06/24 00:59:40;;;;;;;4.00;2.33;;;22.20;99.90;;;;;;20852460;28;20033;-40
2022/06/24 01:09:41;;;;;;;3.70;1.88;;;22.10;99.90;;;;;;20850054;28;20059;-40
2022/06/24 01:19:42;;;;;;;5.07;2.65;;;22.10;99.90;;;;;;20861106;28;20029;-38
2022/06/24 01:29:44;;;;;;;5.93;3.15;;;22.00;99.90;;;;;;20866573;28;20524;-37
2022/06/24 01:39:45;;;;;;;4.53;1.30;;;21.00;99.90;;;;;;20878165;28;20052;-40
2022/06/24 01:49:46;;;;;;;1.58;0.80;;;19.80;99.90;;;;;;20875882;28;20128;-39
2022/06/24 01:59:47;;;;;;;1.55;0.73;;;19.00;99.90;;;;;;20875202;28;22080;-39
2022/06/24 02:20:08;;;;;;;1.63;0.60;;;18.50;99.90;;;;;;20872048;28;20043;-39
2022/06/24 02:30:10;;;;;;;2.08;0.75;;;18.40;99.90;;;;;;20876685;28;20045;-39
2022/06/24 02:50:31;;;;;;;1.52;0.90;;;18.50;99.90;;;;;;20869968;28;20216;-40
2022/06/24 03:00:33;;;;;;;4.22;1.98;;;18.20;99.90;;;;;;20873148;28;20052;-39
2022/06/24 03:10:34;;;;;;;1.45;0.68;;;18.10;99.90;;;;;;20876773;28;20036;-39
2022/06/24 03:20:36;;;;;;;1.42;0.75;;;18.20;99.90;;;;;;20871737;28;20043;-39
2022/06/24 03:30:38;;;;;;;1.48;0.57;;;18.20;99.90;;;;;;20866182;28;20044;-39
2022/06/24 03:40:39;;;;;;;2.28;0.90;;;18.10;99.90;;;;;;20864830;28;20033;-38
2022/06/24 03:50:40;;;;;;;1.60;0.70;;;18.00;99.90;;;;;;20868234;28;20063;-39
2022/06/24 04:00:41;;;;;;;1.05;0.57;;;18.20;99.90;;;;;;20861765;28;20048;-38
2022/06/24 04:10:42;;;;;;;1.48;0.50;;;18.40;99.90;;;;;;20864204;28;20056;-38
2022/06/24 04:20:43;;;;;;;1.48;0.98;;;18.30;99.90;;;;;;20862395;28;20440;-39
2022/06/24 04:30:44;;;;;;;1.92;1.00;;;18.20;99.90;;;;;;20861898;28;20033;-39
2022/06/24 04:40:46;;;;;;;3.70;1.23;;;18.20;99.90;;;;;;20860088;28;20600;-38
2022/06/24 04:50:47;;;;;;;2.40;1.88;;;18.30;99.90;;;;;;20867271;28;20603;-38
2022/06/24 05:00:48;;;;;;;2.88;1.30;;;18.30;99.90;;;;;;20863710;28;20138;-39
2022/06/24 05:10:53;;;;;;;2.97;1.15;;;18.40;99.90;;;;;;20861507;28;20116;-38
2022/06/24 05:20:54;;;;;;;3.38;1.50;;;18.30;99.90;;;;;;20867429;28;20057;-38
2022/06/24 05:30:57;;;;;;;4.22;1.67;;;18.40;99.90;;;;;;20861643;28;20037;-39
2022/06/24 05:40:58;;;;;;;3.85;1.67;;;18.40;99.90;;;;;;20861022;28;20059;-39
2022/06/24 05:50:59;;;;;;;3.78;1.60;;;18.50;99.90;;;;;;20860952;28;20467;-39
2022/06/24 06:01:10;;;;;;;5.60;2.05;;;18.60;99.90;;;;;;20862028;28;20052;-38
2022/06/24 06:11:30;;;;;;;2.30;1.48;;;18.60;99.90;;;;;;20858558;28;20039;-39
2022/06/24 06:21:31;;;;;;;3.00;1.45;;;18.70;99.90;;;;;;20859621;28;20435;-38
2022/06/24 06:31:32;;;;;;;5.35;1.40;;;18.70;99.90;;;;;;20876724;28;20044;-38
2022/06/24 06:41:33;;;;;;;3.35;1.70;;;18.70;99.90;;;;;;20877703;28;20056;-38
2022/06/24 06:51:34;;;;;;;4.32;2.08;;;18.90;99.90;;;;;;20858838;28;20392;-38
2022/06/24 07:01:35;;;;;;;2.28;1.42;;;18.90;99.90;;;;;;20864637;28;20257;-39
2022/06/24 07:11:36;;;;;;;3.42;1.52;;;19.00;99.90;;;;;;20864238;28;21122;-39
2022/06/24 07:21:37;;;;;;;3.47;2.13;;;19.10;99.90;;;;;;20854675;28;20056;-39
2022/06/24 07:31:38;;;;;;;4.57;2.80;;;19.10;99.90;;;;;;20854605;28;20491;-38
2022/06/24 07:41:39;;;;;;;4.47;2.50;;;19.20;99.90;;;;;;20865006;28;20052;-38
2022/06/24 07:51:41;;;;;;;3.72;2.00;;;19.20;99.90;;;;;;20867578;28;20036;-38
2022/06/24 08:01:42;;;;;;;7.22;2.58;;;19.20;99.90;;;;;;20869682;28;20059;-38
2022/06/24 08:11:44;;;;;;;6.95;4.38;;;19.30;99.90;;;;;;20867241;28;20124;-38
2022/06/24 08:21:45;;;;;;;5.75;2.83;;;19.20;99.90;;;;;;20858452;28;20627;-38
2022/06/24 08:31:46;;;;;;;6.10;3.15;;;19.30;99.90;;;;;;20867950;28;20057;-38
2022/06/24 08:41:52;;;;;;;6.18;2.90;;;19.50;99.90;;;;;;20868264;28;20123;-38
2022/06/24 08:51:58;;;;;;;5.72;3.30;;;19.50;99.90;;;;;;20846827;28;20480;-38
2022/06/24 09:01:59;;;;;;;5.55;3.08;;;19.40;99.90;;;;;;20888053;28;20059;-38
2022/06/24 09:12:02;;;;;;;4.35;2.28;;;19.40;99.90;;;;;;20849634;28;20393;-38
2022/06/24 09:22:03;;;;;;;5.05;2.30;;;19.40;99.90;;;;;;20888147;28;21691;-38
2022/06/24 09:32:05;;;;;;;5.88;2.35;;;19.40;99.90;;;;;;20879505;28;20514;-38
2022/06/24 09:42:06;;;;;;;5.97;2.55;;;19.50;99.90;;;;;;20874018;28;20045;-38
2022/06/24 09:52:09;;;;;;;4.45;2.63;;;19.60;99.90;;;;;;20886140;28;20576;-38
2022/06/24 10:02:18;;;;;;;4.45;2.20;;;19.80;99.90;;;;;;20873568;28;20531;-38
2022/06/24 10:12:21;;;;;;;5.13;2.90;;;20.10;99.90;;;;;;20873729;28;20071;-38
2022/06/24 10:22:41;;;;;;;7.32;3.15;;;20.40;99.90;;;;;;20877486;28;21603;-38
2022/06/24 10:33:11;;;;;;;5.38;2.85;;;20.80;99.90;;;;;;20888276;28;20445;-39
2022/06/24 10:43:13;;;;;;;7.15;3.67;;;20.90;99.90;;;;;;20896160;28;20436;-38
2022/06/24 10:53:14;;;;;;;5.18;3.00;;;21.40;99.90;;;;;;20890725;28;20033;-38
2022/06/24 11:03:33;;;;;;;6.82;2.70;;;21.70;99.90;;;;;;20891112;28;20037;-38
2022/06/24 11:13:34;;;;;;;5.72;3.42;;;21.80;99.90;;;;;;20886848;28;20489;-38
2022/06/24 11:23:37;;;;;;;4.68;3.00;;;22.40;99.90;;;;;;20879796;28;20043;-39
2022/06/24 11:33:39;;;;;;;4.30;2.67;;;22.20;99.90;;;;;;20879566;28;20575;-39
2022/06/24 11:43:40;;;;;;;13.70;2.65;;;22.00;99.90;;;;;;20874416;28;20152;-39
2022/06/24 11:53:42;;;;;;;4.40;2.60;;;21.70;99.90;;;;;;20869680;28;20029;-39
2022/06/24 12:03:45;;;;;;;5.32;2.42;;;21.30;99.90;;;;;;20886379;28;20281;-38
2022/06/24 12:14:02;;;;;;;3.30;2.05;;;20.40;99.90;;;;;;20886575;28;20043;-38
2022/06/24 12:24:19;;;;;;;5.00;2.60;;;19.90;99.90;;;;;;20889676;28;21315;-38
2022/06/24 12:34:30;;;;;;;5.63;3.20;;;19.60;99.90;;;;;;20891097;28;20058;-38
2022/06/24 12:44:51;;;;;;;6.13;2.80;;;19.90;99.90;;;;;;20879349;28;20410;-38
2022/06/24 12:54:52;;;;;;;6.47;3.83;;;20.30;99.90;;;;;;20882376;28;20075;-38
2022/06/24 13:04:53;;;;;;;5.78;3.88;;;21.40;99.90;;;;;;20879426;28;20540;-38
2022/06/24 13:14:54;;;;;;;10.43;5.07;;;22.20;99.90;;;;;;20873180;28;20060;-38
2022/06/24 13:24:57;;;;;;;7.18;3.53;;;22.40;99.90;;;;;;20882601;28;20744;-39
2022/06/24 13:34:58;;;;;;;8.45;4.15;;;22.10;99.90;;;;;;20875373;28;20032;-39
2022/06/24 13:44:59;;;;;;;8.48;4.63;;;22.20;99.90;;;;;;20891255;28;20051;-39
2022/06/24 13:55:01;;;;;;;6.25;3.72;;;22.50;99.90;;;;;;20879086;28;20056;-39
2022/06/24 14:05:03;;;;;;;7.85;3.97;;;22.40;99.90;;;;;;20877766;28;20121;-39
2022/06/24 14:15:05;;;;;;;7.60;5.35;;;22.50;99.90;;;;;;20884858;28;20737;-38
2022/06/24 14:25:07;;;;;;;6.78;3.60;;;22.90;99.90;;;;;;20892249;28;20037;-38
2022/06/24 14:35:09;;;;;;;10.32;5.47;;;23.30;99.90;;;;;;20900552;28;20134;-38
2022/06/24 14:45:10;;;;;;;4.78;2.15;;;22.90;99.90;;;;;;20885821;28;20174;-39
2022/06/24 14:55:11;;;;;;;2.13;1.20;;;22.40;99.90;;;;;;20882881;28;20389;-39
2022/06/24 15:05:14;;;;;;;4.03;1.27;;;21.70;99.90;;;;;;20893941;28;20045;-39
2022/06/24 15:15:15;;;;;;;3.03;1.80;;;20.60;99.90;;;;;;20873229;28;20688;-38
2022/06/24 15:25:16;;;;;;;2.20;1.17;;;19.50;99.90;;;;;;20874705;28;20036;-38
2022/06/24 15:35:18;;;;;;;5.13;2.58;;;19.30;99.90;;;;;;20886932;28;20048;-39
2022/06/24 15:45:19;;;;;;;3.70;1.20;;;19.50;99.90;;;;;;20876678;28;20055;-38
2022/06/24 15:55:20;;;;;;;3.38;1.60;;;19.60;99.90;;;;;;20869664;28;20048;-39
2022/06/24 16:05:22;;;;;;;3.88;1.55;;;19.80;99.90;;;;;;20870581;28;20033;-39
2022/06/24 16:15:25;;;;;;;4.00;1.58;;;20.10;99.90;;;;;;20890049;28;20036;-39
2022/06/24 16:35:45;;;;;;;2.75;1.40;;;20.40;99.90;;;;;;20898663;28;21386;-39
2022/06/24 16:45:52;;;;;;;2.78;1.42;;;20.40;99.90;;;;;;20891248;28;20994;-39
2022/06/24 16:55:53;;;;;;;2.97;1.60;;;20.50;99.90;;;;;;20855969;28;20622;-39
2022/06/24 17:05:56;;;;;;;3.22;1.15;;;20.60;99.90;;;;;;20854279;28;20342;-39
2022/06/24 17:15:58;;;;;;;1.75;0.82;;;20.50;99.90;;;;;;20857058;28;20060;-39
2022/06/24 17:25:59;;;;;;;3.58;1.33;;;20.60;99.90;;;;;;20870056;28;20052;-39
2022/06/24 17:36:00;;;;;;;4.75;1.52;;;20.70;99.90;;;;;;20846132;28;20482;-39
2022/06/24 17:46:01;;;;;;;3.63;1.42;;;20.70;99.90;;;;;;20856218;28;20049;-39
2022/06/24 17:56:03;;;;;;;3.20;1.17;;;20.60;99.90;;;;;;20858211;28;20030;-39
2022/06/24 18:06:04;;;;;;;2.08;1.00;;;20.50;99.90;;;;;;20859037;28;20040;-38
2022/06/24 18:16:05;;;;;;;3.67;1.55;;;20.40;99.90;;;;;;20862475;28;20444;-39
2022/06/24 18:26:06;;;;;;;2.67;1.70;;;20.60;99.90;;;;;;20864798;28;20063;-39
2022/06/24 18:36:07;;;;;;;5.03;1.38;;;20.60;99.90;;;;;;20878017;28;20498;-39
2022/06/24 18:46:09;;;;;;;3.03;1.13;;;20.70;99.90;;;;;;20883209;28;20075;-39
2022/06/24 18:56:10;;;;;;;2.97;1.30;;;20.60;99.90;;;;;;20880440;28;20040;-39
2022/06/24 19:06:11;;;;;;;5.78;1.40;;;20.70;99.90;;;;;;20879745;28;20052;-39
2022/06/24 19:16:12;;;;;;;2.75;1.30;;;20.70;99.90;;;;;;20864600;28;20037;-39
2022/06/24 19:26:13;;;;;;;3.25;1.83;;;20.60;99.90;;;;;;20870872;28;20040;-39
2022/06/24 19:36:14;;;;;;;2.90;1.50;;;20.50;99.90;;;;;;20871073;28;20041;-39
2022/06/24 19:46:15;;;;;;;3.95;2.35;;;20.40;99.90;;;;;;20878550;28;20044;-39
2022/06/24 19:56:18;;;;;;;3.17;1.77;;;20.30;99.90;;;;;;20870484;28;20187;-39
2022/06/24 20:06:20;;;;;;;2.90;1.52;;;20.20;99.90;;;;;;20875477;28;20048;-39
2022/06/24 20:16:27;;;;;;;3.33;1.70;;;20.10;99.90;;;;;;20860593;28;20036;-39
2022/06/24 20:26:28;;;;;;;5.60;2.13;;;20.00;99.90;;;;;;20869537;28;20045;-39
2022/06/24 20:36:29;;;;;;;4.95;2.20;;;20.00;99.90;;;;;;20857773;28;20040;-39
2022/06/24 20:46:31;;;;;;;3.63;1.85;;;20.00;99.90;;;;;;20855741;28;20599;-39
2022/06/24 20:56:33;;;;;;;3.38;1.77;;;20.00;99.90;;;;;;20879729;28;20098;-39
2022/06/24 21:06:34;;;;;;;4.32;2.33;;;20.00;99.90;;;;;;20880250;28;20127;-39
2022/06/24 21:16:35;;;;;;;4.03;1.65;;;19.90;99.90;;;;;;20870266;28;20033;-39
2022/06/24 21:26:37;;;;;;;2.92;1.85;;;19.80;99.90;;;;;;20871263;28;20040;-39
2022/06/24 21:36:38;;;;;;;4.47;1.95;;;19.70;99.90;;;;;;20872858;28;20057;-39
2022/06/24 21:46:39;;;;;;;4.50;2.40;;;19.70;99.90;;;;;;20877376;28;20119;-39
2022/06/24 21:56:41;;;;;;;4.85;2.40;;;19.60;99.90;;;;;;20883560;28;20037;-39
2022/06/24 22:06:45;;;;;;;3.80;1.30;;;19.70;99.90;;;;;;20885687;28;20392;-39
2022/06/24 22:16:46;;;;;;;3.45;1.20;;;19.60;99.90;;;;;;20883666;28;20433;-39
2022/06/24 22:26:48;;;;;;;1.55;0.75;;;19.60;99.90;;;;;;20883862;28;20185;-39
2022/06/24 22:36:49;;;;;;;2.45;0.80;;;19.60;99.90;;;;;;20884309;28;20095;-39
2022/06/24 22:46:50;;;;;;;0.80;0.40;;;19.50;99.90;;;;;;20887076;28;20041;-39
2022/06/24 22:56:51;;;;;;;1.80;0.73;;;19.30;99.90;;;;;;20885869;28;20396;-39
2022/06/24 23:06:52;;;;;;;3.55;1.17;;;19.20;99.90;;;;;;20883615;28;20052;-39
2022/06/24 23:16:53;;;;;;;1.75;1.10;;;19.20;99.90;;;;;;20886167;28;20123;-39
2022/06/24 23:26:54;;;;;;;1.67;0.95;;;19.20;99.90;;;;;;20885623;28;20170;-39
2022/06/24 23:36:55;;;;;;;2.30;1.08;;;19.10;99.90;;;;;;20886702;28;20032;-39
2022/06/24 23:46:56;;;;;;;2.15;0.82;;;19.00;99.90;;;;;;20867781;28;20641;-39
2022/06/24 23:56:57;;;;;;;1.92;0.85;;;18.90;99.90;;;;;;20876975;28;20037;-39
